Time;durP1;ratioP1;P1;durP2;ratioP2;P2;SDS_P1;SDS_P2;PMS_P1;PMS_P2;Temp;Humidity;BMP_temperature;BMP_pressure;BME280_temperature;BME280_humidity;BME280_pressure;Samples;Min_cycle;Max_cycle;Signal;HPM_P1;HPM_P2
2021/01/30 00:00:41;;;;;;;8.05;1.05;;;9.40;99.90;;;;;;5055280;28;20270;-88
2021/01/30 00:03:09;;;;;;;6.07;3.40;;;9.40;99.90;;;;;;5069076;28;20031;-89
2021/01/30 00:05:35;;;;;;;0.38;0.38;;;9.40;99.90;;;;;;5067194;28;20051;-87
2021/01/30 00:08:01;;;;;;;0.73;0.73;;;9.50;99.90;;;;;;5068469;28;20063;-88
2021/01/30 00:10:27;;;;;;;0.53;0.53;;;9.60;99.90;;;;;;5042720;28;20037;-88
2021/01/30 00:12:54;;;;;;;1.25;1.15;;;9.60;99.90;;;;;;5062302;28;20025;-88
2021/01/30 00:15:23;;;;;;;0.20;0.20;;;9.50;99.90;;;;;;5067448;28;20029;-88
2021/01/30 00:17:50;;;;;;;1.17;0.47;;;9.40;99.90;;;;;;5068265;28;20782;-88
2021/01/30 00:20:20;;;;;;;2.47;1.17;;;9.40;99.90;;;;;;5068025;28;20037;-88
2021/01/30 00:22:46;;;;;;;0.40;0.40;;;9.40;99.90;;;;;;5063458;28;20021;-88
2021/01/30 00:25:12;;;;;;;1.20;1.10;;;9.40;99.90;;;;;;5050069;28;20109;-88
2021/01/30 00:27:38;;;;;;;0.10;0.10;;;9.40;99.90;;;;;;5050298;28;20025;-88
2021/01/30 00:30:09;;;;;;;0.32;0.32;;;9.40;99.90;;;;;;5068114;28;20028;-88
2021/01/30 00:32:34;;;;;;;0.20;0.20;;;9.40;99.90;;;;;;5050674;28;20021;-88
2021/01/30 00:35:00;;;;;;;0.43;0.40;;;9.50;99.90;;;;;;5068667;28;20029;-88
2021/01/30 00:37:26;;;;;;;0.98;0.95;;;9.40;99.90;;;;;;5074997;28;20173;-88
2021/01/30 00:39:53;;;;;;;0.30;0.30;;;9.40;99.90;;;;;;5074122;28;20039;-88
2021/01/30 00:42:23;;;;;;;0.43;0.43;;;9.40;99.90;;;;;;5071615;28;20883;-88
2021/01/30 00:44:50;;;;;;;1.02;1.02;;;9.50;99.90;;;;;;5068828;28;20028;-88
2021/01/30 00:47:16;;;;;;;;;;;9.50;99.90;;;;;;5077127;28;20115;-88
2021/01/30 00:49:43;;;;;;;0.45;0.45;;;9.50;99.90;;;;;;5054854;28;20030;-87
2021/01/30 00:52:10;;;;;;;;;;;9.50;99.90;;;;;;5041816;28;20048;-88
2021/01/30 00:54:36;;;;;;;1.35;1.10;;;9.50;99.90;;;;;;5049748;28;19999;-87
2021/01/30 00:57:02;;;;;;;0.10;0.10;;;9.50;99.90;;;;;;5066881;28;20642;-87
2021/01/30 00:59:28;;;;;;;0.38;0.38;;;9.50;99.90;;;;;;5067592;28;20048;-87
2021/01/30 01:01:54;;;;;;;0.65;0.65;;;9.40;99.90;;;;;;5070251;28;20137;-88
2021/01/30 01:04:20;;;;;;;0.43;0.43;;;9.40;99.90;;;;;;5067884;28;20032;-87
2021/01/30 01:06:47;;;;;;;0.73;0.73;;;9.40;99.90;;;;;;5068059;28;20104;-89
2021/01/30 01:09:13;;;;;;;0.65;0.65;;;9.40;99.90;;;;;;5075235;28;20097;-88
2021/01/30 01:11:40;;;;;;;0.43;0.43;;;9.40;99.90;;;;;;5070457;28;20571;-88
2021/01/30 01:14:07;;;;;;;0.25;0.25;;;9.40;99.90;;;;;;5048349;28;20502;-89
2021/01/30 01:16:34;;;;;;;0.10;0.10;;;9.50;99.90;;;;;;5049333;28;20024;-88
2021/01/30 01:19:00;;;;;;;0.20;0.20;;;9.50;99.90;;;;;;5041794;28;20116;-89
2021/01/30 01:21:26;;;;;;;0.10;0.10;;;9.50;99.90;;;;;;5062184;28;20115;-88
2021/01/30 01:23:52;;;;;;;6.00;0.90;;;9.60;99.90;;;;;;5053929;28;20048;-88
2021/01/30 01:26:19;;;;;;;0.20;0.20;;;9.50;99.90;;;;;;5047261;28;20051;-89
2021/01/30 01:28:45;;;;;;;1.00;0.80;;;9.50;99.90;;;;;;5067593;28;20085;-89
2021/01/30 01:31:12;;;;;;;0.63;0.63;;;9.50;99.90;;;;;;5049080;28;20121;-88
2021/01/30 01:33:39;;;;;;;0.45;0.45;;;9.40;99.90;;;;;;5067223;28;20537;-88
2021/01/30 01:36:06;;;;;;;1.08;0.40;;;9.40;99.90;;;;;;5068054;28;20024;-88
2021/01/30 01:38:32;;;;;;;0.63;0.63;;;9.50;99.90;;;;;;5051184;28;20040;-88
2021/01/30 01:41:01;;;;;;;1.25;0.57;;;9.40;99.90;;;;;;5058288;28;20023;-88
2021/01/30 01:43:28;;;;;;;0.25;0.25;;;9.50;99.90;;;;;;5071486;28;20035;-87
2021/01/30 01:46:19;;;;;;;0.20;0.20;;;9.50;99.90;;;;;;5069883;28;20036;-87
2021/01/30 01:48:51;;;;;;;0.32;0.32;;;9.50;99.90;;;;;;5067065;28;20139;-87
2021/01/30 01:51:36;;;;;;;0.80;0.80;;;9.50;99.90;;;;;;5049769;28;20409;-87
2021/01/30 01:54:05;;;;;;;0.30;0.20;;;9.40;99.90;;;;;;5075822;28;20032;-87
2021/01/30 01:56:34;;;;;;;0.10;0.10;;;9.40;99.90;;;;;;5073251;28;20484;-87
2021/01/30 01:59:11;;;;;;;0.85;0.85;;;9.40;99.90;;;;;;5069890;28;20024;-87
2021/01/30 02:01:38;;;;;;;1.45;0.47;;;9.40;99.90;;;;;;5069897;28;20093;-87
2021/01/30 02:04:24;;;;;;;0.95;0.95;;;9.50;99.90;;;;;;5070368;28;20036;-87
2021/01/30 02:06:51;;;;;;;0.10;0.10;;;9.50;99.90;;;;;;5070448;28;20039;-88
2021/01/30 02:09:23;;;;;;;0.10;0.10;;;9.50;99.90;;;;;;5069442;28;20036;-87
2021/01/30 02:11:57;;;;;;;0.63;0.63;;;9.60;99.90;;;;;;5070250;28;20109;-87
2021/01/30 02:14:23;;;;;;;0.65;0.65;;;9.60;99.90;;;;;;5069946;28;20107;-87
2021/01/30 02:16:57;;;;;;;4.03;2.00;;;9.60;99.90;;;;;;5070176;28;20115;-87
2021/01/30 02:19:53;;;;;;;0.80;0.65;;;9.60;99.90;;;;;;5068313;28;20049;-87
2021/01/30 02:22:40;;;;;;;0.30;0.30;;;9.50;99.90;;;;;;5070939;28;20378;-87
2021/01/30 02:25:25;;;;;;;0.10;0.10;;;9.40;99.90;;;;;;5070200;28;20046;-86
2021/01/30 02:28:25;;;;;;;0.60;0.60;;;9.50;99.90;;;;;;5051380;28;20022;-87
2021/01/30 02:31:00;;;;;;;0.30;0.30;;;9.50;99.90;;;;;;5068255;28;20060;-87
2021/01/30 02:33:46;;;;;;;0.63;0.63;;;9.50;99.90;;;;;;5069696;28;20020;-87
2021/01/30 02:36:28;;;;;;;0.28;0.28;;;9.50;99.90;;;;;;5063967;28;20028;-87
2021/01/30 02:39:02;;;;;;;0.85;0.85;;;9.50;99.90;;;;;;5069851;28;20029;-86
2021/01/30 02:41:34;;;;;;;0.32;0.30;;;9.50;99.90;;;;;;5070049;28;20367;-87
2021/01/30 02:44:04;;;;;;;0.10;0.10;;;9.50;99.90;;;;;;5069136;28;20060;-86
2021/01/30 02:46:37;;;;;;;0.20;0.20;;;9.40;99.90;;;;;;5062280;28;20551;-87
2021/01/30 02:49:11;;;;;;;0.10;0.10;;;9.40;99.90;;;;;;5068696;28;20029;-86
2021/01/30 02:51:44;;;;;;;0.52;0.52;;;9.40;99.90;;;;;;5049616;28;20039;-87
2021/01/30 02:54:12;;;;;;;0.30;0.30;;;9.50;99.90;;;;;;5063226;28;20510;-86
2021/01/30 02:56:39;;;;;;;0.55;0.55;;;9.40;99.90;;;;;;5050959;28;20409;-86
2021/01/30 02:59:08;;;;;;;0.20;0.20;;;9.40;99.90;;;;;;5069457;28;20052;-86
2021/01/30 03:01:36;;;;;;;0.20;0.20;;;9.50;99.90;;;;;;5068152;28;20029;-87
2021/01/30 03:04:17;;;;;;;0.20;0.20;;;9.40;99.90;;;;;;5051539;28;20028;-89
2021/01/30 03:07:10;;;;;;;0.30;0.30;;;9.40;99.90;;;;;;5064183;28;20040;-88
2021/01/30 03:09:38;;;;;;;1.75;0.65;;;9.40;99.90;;;;;;5063112;28;20056;-89
2021/01/30 03:12:15;;;;;;;0.65;0.65;;;9.40;99.90;;;;;;5068935;28;20062;-89
2021/01/30 03:14:49;;;;;;;0.30;0.30;;;9.40;99.90;;;;;;5064519;28;20519;-89
2021/01/30 03:17:17;;;;;;;0.55;0.55;;;9.30;99.90;;;;;;5068468;28;20461;-89
2021/01/30 03:19:44;;;;;;;0.25;0.25;;;9.30;99.90;;;;;;5069212;28;20107;-89
2021/01/30 03:22:12;;;;;;;1.95;1.60;;;9.30;99.90;;;;;;5050530;28;20458;-89
2021/01/30 03:24:45;;;;;;;0.63;0.63;;;9.40;99.90;;;;;;5063252;28;20697;-89
2021/01/30 03:27:18;;;;;;;0.10;0.10;;;9.40;99.90;;;;;;5065710;28;20452;-89
2021/01/30 03:29:44;;;;;;;0.10;0.10;;;9.40;99.90;;;;;;5069286;28;20060;-88
2021/01/30 03:32:10;;;;;;;0.10;0.10;;;9.40;99.90;;;;;;5068857;28;20458;-89
2021/01/30 03:34:36;;;;;;;0.10;0.10;;;9.30;99.90;;;;;;5050810;28;20031;-88
2021/01/30 03:37:02;;;;;;;0.32;0.32;;;9.40;99.90;;;;;;5073619;28;20093;-88
2021/01/30 03:39:27;;;;;;;2.60;0.63;;;9.40;99.90;;;;;;5069753;28;20531;-88
2021/01/30 03:41:53;;;;;;;0.20;0.20;;;9.40;99.90;;;;;;5068522;28;20490;-87
2021/01/30 03:44:19;;;;;;;0.10;0.10;;;9.30;99.90;;;;;;5051235;28;20066;-87
2021/01/30 03:46:45;;;;;;;1.48;0.55;;;9.20;99.90;;;;;;5050571;28;20675;-87
2021/01/30 03:49:11;;;;;;;0.10;0.10;;;9.10;99.90;;;;;;5070198;28;20487;-88
2021/01/30 03:51:37;;;;;;;0.40;0.40;;;9.20;99.90;;;;;;5068719;28;20097;-87
2021/01/30 03:54:03;;;;;;;0.10;0.10;;;9.20;99.90;;;;;;5068650;28;20179;-88
2021/01/30 03:56:28;;;;;;;2.35;1.80;;;9.30;99.90;;;;;;5068214;28;20119;-88
2021/01/30 03:58:54;;;;;;;0.10;0.10;;;9.20;99.90;;;;;;5070456;28;20104;-87
2021/01/30 04:01:20;;;;;;;0.10;0.10;;;9.30;99.90;;;;;;5070996;28;20028;-89
2021/01/30 04:03:47;;;;;;;0.17;0.17;;;9.20;99.90;;;;;;5068119;28;20085;-89
2021/01/30 04:06:14;;;;;;;0.10;0.10;;;9.20;99.90;;;;;;5050550;28;20505;-89
2021/01/30 04:08:40;;;;;;;;;;;9.20;99.90;;;;;;5068252;28;20108;-89
2021/01/30 04:11:06;;;;;;;0.37;0.37;;;9.20;99.90;;;;;;5068304;28;20429;-89
2021/01/30 04:13:32;;;;;;;0.10;0.10;;;9.10;99.90;;;;;;5067960;28;20028;-89
2021/01/30 04:15:58;;;;;;;0.35;0.35;;;9.00;99.90;;;;;;5068558;28;20524;-89
2021/01/30 04:18:24;;;;;;;0.22;0.22;;;9.00;99.90;;;;;;5049628;28;20028;-89
2021/01/30 04:20:49;;;;;;;0.30;0.30;;;9.00;99.90;;;;;;5067094;28;20538;-89
2021/01/30 04:23:15;;;;;;;0.20;0.20;;;9.00;99.90;;;;;;5067834;28;20033;-88
2021/01/30 04:25:41;;;;;;;1.00;1.00;;;9.10;99.90;;;;;;5049790;28;20016;-88
2021/01/30 04:28:07;;;;;;;2.10;1.65;;;9.10;99.90;;;;;;5068445;28;20060;-88
2021/01/30 04:30:32;;;;;;;2.00;0.98;;;9.20;99.90;;;;;;5069056;28;20536;-88
2021/01/30 04:32:59;;;;;;;0.20;0.20;;;9.20;99.90;;;;;;5058472;28;20067;-88
2021/01/30 04:35:36;;;;;;;0.28;0.28;;;9.10;99.90;;;;;;5049293;28;20036;-88
2021/01/30 04:38:02;;;;;;;;;;;9.20;99.90;;;;;;5068340;28;20025;-88
2021/01/30 04:40:41;;;;;;;4.03;0.82;;;9.20;99.90;;;;;;5066987;28;19915;-88
2021/01/30 04:43:32;;;;;;;4.95;1.38;;;9.20;99.90;;;;;;5065851;28;20016;-88
2021/01/30 04:46:24;;;;;;;0.10;0.10;;;9.20;99.90;;;;;;5048170;28;20032;-88
2021/01/30 04:49:15;;;;;;;0.00;0.00;;;9.10;99.90;;;;;;5049508;28;20834;-88
2021/01/30 04:52:11;;;;;;;0.10;0.10;;;9.10;99.90;;;;;;5066472;28;20028;-88
2021/01/30 04:54:46;;;;;;;0.10;0.10;;;9.00;99.90;;;;;;5069504;28;20031;-87
2021/01/30 04:57:17;;;;;;;0.10;0.10;;;9.10;99.90;;;;;;5059294;28;20029;-87
2021/01/30 05:00:00;;;;;;;0.50;0.50;;;9.10;99.90;;;;;;5049267;28;20506;-87
2021/01/30 05:02:52;;;;;;;2.17;1.65;;;9.20;99.90;;;;;;5074520;28;20475;-88
2021/01/30 05:05:22;;;;;;;0.17;0.17;;;9.10;99.90;;;;;;5067298;28;20020;-88
2021/01/30 05:07:56;;;;;;;2.28;0.40;;;9.10;99.90;;;;;;5067193;28;20051;-88
2021/01/30 05:10:34;;;;;;;1.35;0.80;;;9.00;99.90;;;;;;5049575;28;20746;-88
2021/01/30 05:13:22;;;;;;;0.20;0.20;;;9.00;99.90;;;;;;5049636;28;20090;-88
2021/01/30 05:16:04;;;;;;;1.23;1.13;;;9.00;99.90;;;;;;5068925;28;20757;-87
2021/01/30 05:18:33;;;;;;;7.78;0.70;;;9.00;99.90;;;;;;5053407;28;20151;-87
2021/01/30 05:21:19;;;;;;;0.20;0.20;;;9.00;99.90;;;;;;5070266;28;20115;-87
2021/01/30 05:23:50;;;;;;;0.70;0.70;;;9.00;99.90;;;;;;5052542;28;20020;-87
2021/01/30 05:26:33;;;;;;;0.10;0.10;;;9.00;99.90;;;;;;5071717;28;20042;-88
2021/01/30 05:29:23;;;;;;;0.20;0.20;;;8.90;99.90;;;;;;5058571;28;20039;-87
2021/01/30 05:32:20;;;;;;;0.52;0.52;;;9.00;99.90;;;;;;5053301;28;20032;-88
2021/01/30 05:35:03;;;;;;;0.20;0.20;;;9.00;99.90;;;;;;5059988;28;20443;-87
2021/01/30 05:37:36;;;;;;;0.10;0.10;;;9.00;99.90;;;;;;5055096;28;20554;-88
2021/01/30 05:40:11;;;;;;;0.40;0.40;;;9.10;99.90;;;;;;5052797;28;20762;-90
2021/01/30 05:42:40;;;;;;;3.83;2.08;;;9.00;99.90;;;;;;5053059;28;20020;-90
2021/01/30 05:45:59;;;;;;;1.75;1.13;;;9.10;99.90;;;;;;5061994;28;20028;-90
2021/01/30 05:48:34;;;;;;;0.10;0.10;;;9.20;99.90;;;;;;4998541;28;20034;-87
2021/01/30 05:51:07;;;;;;;1.85;1.05;;;9.30;99.90;;;;;;4994941;28;20617;-91
2021/01/30 05:53:34;;;;;;;0.10;0.10;;;9.40;99.90;;;;;;4996484;28;20523;-90
2021/01/30 05:56:00;;;;;;;3.42;0.75;;;9.40;99.90;;;;;;5003809;28;20805;-90
2021/01/30 05:58:27;;;;;;;0.17;0.17;;;9.50;99.90;;;;;;5005038;28;20026;-89
2021/01/30 06:01:12;;;;;;;;;;;9.40;99.90;;;;;;4994138;28;20033;-90
2021/01/30 06:03:57;;;;;;;0.10;0.10;;;9.40;99.90;;;;;;4978869;28;19905;-89
2021/01/30 06:06:28;;;;;;;0.32;0.32;;;9.30;99.90;;;;;;4980468;28;20026;-88
2021/01/30 06:09:00;;;;;;;26.88;0.80;;;9.40;99.90;;;;;;5002478;28;20034;-89
2021/01/30 06:11:27;;;;;;;0.10;0.10;;;9.20;99.90;;;;;;4974087;28;20153;-88
2021/01/30 06:14:00;;;;;;;;;;;9.20;99.90;;;;;;4994578;28;20080;-87
2021/01/30 06:16:47;;;;;;;0.25;0.25;;;9.20;99.90;;;;;;5007672;28;19929;-87
2021/01/30 06:19:21;;;;;;;3.00;1.25;;;9.20;99.90;;;;;;5006557;28;20046;-89
2021/01/30 06:21:49;;;;;;;0.40;0.40;;;9.20;99.90;;;;;;5001539;28;20027;-89
2021/01/30 06:24:30;;;;;;;0.45;0.45;;;9.00;99.90;;;;;;5026324;28;20533;-90
2021/01/30 06:27:01;;;;;;;0.10;0.10;;;9.00;99.90;;;;;;5046552;28;20035;-90
2021/01/30 06:29:41;;;;;;;0.40;0.40;;;8.90;99.90;;;;;;5047100;28;20041;-91
2021/01/30 06:32:19;;;;;;;0.25;0.25;;;8.90;99.90;;;;;;5045230;28;20077;-93
2021/01/30 06:34:47;;;;;;;0.65;0.65;;;8.90;99.90;;;;;;5049033;28;20037;-90
2021/01/30 06:37:37;;;;;;;6.93;1.55;;;8.90;99.90;;;;;;5048952;28;20025;-90
2021/01/30 06:40:18;;;;;;;0.30;0.30;;;9.00;99.90;;;;;;5029635;28;20510;-90
2021/01/30 06:42:47;;;;;;;0.10;0.10;;;9.10;99.90;;;;;;5048240;28;20018;-91
2021/01/30 06:45:31;;;;;;;0.70;0.70;;;9.10;99.90;;;;;;5030694;28;20029;-91
2021/01/30 06:47:57;;;;;;;0.70;0.70;;;9.30;99.90;;;;;;5046894;28;20021;-91
2021/01/30 06:50:34;;;;;;;1.67;1.40;;;9.20;99.90;;;;;;5049157;28;20025;-90
2021/01/30 06:53:30;;;;;;;0.75;0.75;;;9.10;99.90;;;;;;5049290;28;20553;-90
2021/01/30 06:56:12;;;;;;;0.45;0.45;;;8.90;99.90;;;;;;5041443;28;20082;-91
2021/01/30 06:58:43;;;;;;;2.17;0.63;;;8.80;99.90;;;;;;5044725;28;20067;-91
2021/01/30 07:01:25;;;;;;;2.67;1.75;;;8.70;99.90;;;;;;5047270;28;20487;-90
2021/01/30 07:04:14;;;;;;;0.55;0.55;;;8.70;99.90;;;;;;5042617;28;20025;-90
2021/01/30 07:07:04;;;;;;;0.15;0.15;;;8.60;99.90;;;;;;5047016;28;20036;-91
2021/01/30 07:09:58;;;;;;;0.63;0.63;;;8.50;99.90;;;;;;5046342;28;20082;-90
2021/01/30 07:12:32;;;;;;;0.60;0.60;;;8.20;99.90;;;;;;5046981;28;20770;-89
2021/01/30 07:15:22;;;;;;;5.72;2.63;;;8.10;99.90;;;;;;5046800;28;20033;-90
2021/01/30 07:17:57;;;;;;;3.47;1.70;;;8.10;99.90;;;;;;5045910;28;20072;-90
2021/01/30 07:20:27;;;;;;;1.10;1.00;;;8.10;99.90;;;;;;5057713;28;20044;-90
2021/01/30 07:22:55;;;;;;;3.20;1.55;;;8.00;99.90;;;;;;5047417;28;20101;-90
2021/01/30 07:25:37;;;;;;;0.32;0.32;;;8.00;99.90;;;;;;5068652;28;20020;-89
2021/01/30 07:28:18;;;;;;;1.17;1.17;;;8.10;99.90;;;;;;5061681;28;20035;-90
2021/01/30 07:30:49;;;;;;;0.10;0.10;;;8.10;99.90;;;;;;5065371;28;20501;-91
2021/01/30 07:33:29;;;;;;;1.75;1.05;;;8.20;99.90;;;;;;5049091;28;20119;-90
2021/01/30 07:35:58;;;;;;;0.30;0.30;;;8.20;99.90;;;;;;5067989;28;20028;-89
2021/01/30 07:38:47;;;;;;;0.30;0.30;;;8.20;99.90;;;;;;5067761;28;20031;-89
2021/01/30 07:41:22;;;;;;;0.13;0.13;;;8.30;99.90;;;;;;5062398;28;20033;-89
2021/01/30 07:44:10;;;;;;;4.03;0.65;;;8.30;99.90;;;;;;5046961;28;20063;-89
2021/01/30 07:46:48;;;;;;;5.60;0.50;;;8.40;99.90;;;;;;5068745;28;20596;-89
2021/01/30 07:49:23;;;;;;;3.83;0.38;;;8.40;99.90;;;;;;5066264;28;20035;-89
2021/01/30 07:52:04;;;;;;;0.10;0.10;;;8.50;99.90;;;;;;5067400;28;20051;-89
2021/01/30 07:54:31;;;;;;;0.20;0.20;;;8.40;99.90;;;;;;5068651;28;20624;-89
2021/01/30 07:57:18;;;;;;;0.10;0.10;;;8.50;99.90;;;;;;5068520;28;20390;-89
2021/01/30 07:59:56;;;;;;;1.65;0.95;;;8.50;99.90;;;;;;5050120;28;20090;-89
2021/01/30 08:02:53;;;;;;;0.45;0.45;;;8.50;99.90;;;;;;5068554;28;20440;-88
2021/01/30 08:06:06;;;;;;;3.42;0.85;;;8.50;99.90;;;;;;5051268;28;20031;-89
2021/01/30 08:08:51;;;;;;;0.10;0.10;;;8.50;99.90;;;;;;5036064;28;20421;-89
2021/01/30 08:11:31;;;;;;;0.75;0.73;;;8.60;99.90;;;;;;5068486;28;20020;-90
2021/01/30 08:14:25;;;;;;;0.17;0.17;;;8.60;99.90;;;;;;5068546;28;20017;-89
2021/01/30 08:17:03;;;;;;;0.30;0.30;;;8.70;99.90;;;;;;5067371;28;20051;-89
2021/01/30 08:19:46;;;;;;;0.17;0.17;;;8.70;99.90;;;;;;5069177;28;20043;-88
2021/01/30 08:22:21;;;;;;;0.50;0.50;;;8.80;99.90;;;;;;5074132;28;20439;-88
2021/01/30 08:25:00;;;;;;;0.20;0.20;;;8.80;99.90;;;;;;5050927;28;20385;-88
2021/01/30 08:27:33;;;;;;;0.10;0.10;;;8.80;99.90;;;;;;5052881;28;20032;-89
2021/01/30 08:30:05;;;;;;;0.20;0.20;;;8.80;99.90;;;;;;5067084;28;20052;-88
2021/01/30 08:32:34;;;;;;;0.20;0.20;;;8.80;99.90;;;;;;5046513;28;20024;-87
2021/01/30 08:35:21;;;;;;;0.50;0.50;;;8.80;99.90;;;;;;5053101;28;20098;-87
2021/01/30 08:38:07;;;;;;;0.20;0.20;;;8.90;99.90;;;;;;5070059;28;20056;-87
2021/01/30 08:40:56;;;;;;;0.88;0.73;;;8.90;99.90;;;;;;5051086;28;20031;-87
2021/01/30 08:43:41;;;;;;;0.82;0.82;;;8.80;99.90;;;;;;5048206;28;20097;-87
2021/01/30 08:46:27;;;;;;;0.15;0.15;;;8.90;99.90;;;;;;5069886;28;20021;-87
2021/01/30 08:49:14;;;;;;;1.55;0.63;;;8.90;99.90;;;;;;5069615;28;20639;-87
2021/01/30 08:51:45;;;;;;;0.77;0.40;;;9.00;99.90;;;;;;5070732;28;20029;-87
2021/01/30 08:54:34;;;;;;;0.35;0.35;;;9.00;99.90;;;;;;5072225;28;20099;-87
2021/01/30 08:57:01;;;;;;;0.35;0.35;;;9.00;99.90;;;;;;5063358;28;20032;-87
2021/01/30 08:59:49;;;;;;;0.40;0.40;;;9.00;99.90;;;;;;5073274;28;20715;-87
2021/01/30 09:02:27;;;;;;;0.40;0.40;;;9.00;99.90;;;;;;5073334;28;20028;-87
2021/01/30 09:05:33;;;;;;;0.10;0.10;;;9.10;99.90;;;;;;5071839;28;20385;-87
2021/01/30 09:08:20;;;;;;;0.10;0.10;;;9.10;99.90;;;;;;5073102;28;20031;-87
2021/01/30 09:10:46;;;;;;;1.77;1.65;;;9.10;99.90;;;;;;5052086;28;20047;-87
2021/01/30 09:13:15;;;;;;;0.50;0.50;;;9.20;99.90;;;;;;5055215;28;20013;-87
2021/01/30 09:15:41;;;;;;;2.83;2.63;;;9.30;99.90;;;;;;5052170;28;20506;-87
2021/01/30 09:18:12;;;;;;;0.57;0.57;;;9.40;99.90;;;;;;5050236;28;20029;-87
2021/01/30 09:20:56;;;;;;;0.22;0.22;;;9.50;99.90;;;;;;5069369;28;20137;-86
2021/01/30 09:23:59;;;;;;;0.55;0.55;;;9.50;99.90;;;;;;5069151;28;20039;-88
2021/01/30 09:26:50;;;;;;;1.30;0.82;;;9.60;99.90;;;;;;5065855;28;20029;-89
2021/01/30 09:29:34;;;;;;;0.60;0.60;;;9.50;99.90;;;;;;5046209;28;20028;-88
2021/01/30 09:32:01;;;;;;;1.67;1.08;;;9.50;99.90;;;;;;5063901;28;20032;-90
2021/01/30 09:34:34;;;;;;;0.40;0.40;;;9.50;99.90;;;;;;5049750;28;20436;-90
2021/01/30 09:37:00;;;;;;;0.43;0.43;;;9.60;99.90;;;;;;5065042;28;20032;-90
2021/01/30 09:39:32;;;;;;;3.10;2.60;;;9.60;99.90;;;;;;5069011;28;20016;-90
2021/01/30 09:42:18;;;;;;;1.63;1.27;;;9.70;99.90;;;;;;5049646;28;20039;-90
2021/01/30 09:44:47;;;;;;;;;;;9.80;99.90;;;;;;5063609;28;20025;-89
2021/01/30 09:47:21;;;;;;;1.10;0.75;;;9.90;99.90;;;;;;5064595;28;19920;-89
2021/01/30 09:50:11;;;;;;;0.15;0.15;;;9.90;99.90;;;;;;5058898;28;20036;-89
2021/01/30 09:52:46;;;;;;;0.10;0.10;;;9.90;99.90;;;;;;5044691;28;20417;-88
2021/01/30 09:55:13;;;;;;;0.57;0.57;;;9.90;99.90;;;;;;5047414;28;20058;-88
2021/01/30 09:57:43;;;;;;;0.20;0.20;;;9.90;99.90;;;;;;5041541;28;20036;-89
2021/01/30 10:00:14;;;;;;;0.20;0.20;;;9.90;99.90;;;;;;5056664;28;20048;-88
2021/01/30 10:02:40;;;;;;;0.10;0.10;;;9.90;99.90;;;;;;5058224;28;20174;-89
2021/01/30 10:05:16;;;;;;;0.25;0.25;;;10.00;99.90;;;;;;5054825;28;20780;-89
2021/01/30 10:07:43;;;;;;;0.20;0.20;;;10.00;99.90;;;;;;5056816;28;20024;-88
2021/01/30 10:10:30;;;;;;;;;;;10.00;99.90;;;;;;5042591;28;20025;-88
2021/01/30 10:12:58;;;;;;;;;;;9.90;99.90;;;;;;5058991;28;20464;-89
2021/01/30 10:15:34;;;;;;;0.10;0.10;;;10.00;99.90;;;;;;5071139;28;19908;-89
2021/01/30 10:18:10;;;;;;;0.10;0.10;;;10.00;99.90;;;;;;5065909;28;20030;-90
2021/01/30 10:20:52;;;;;;;0.10;0.10;;;10.00;99.90;;;;;;5048144;28;20083;-89
2021/01/30 10:23:36;;;;;;;0.10;0.10;;;10.10;99.90;;;;;;5061731;28;20494;-91
2021/01/30 10:26:14;;;;;;;0.10;0.10;;;10.30;99.90;;;;;;5039880;28;20086;-89
2021/01/30 10:28:52;;;;;;;0.10;0.10;;;10.30;99.90;;;;;;5060705;28;20033;-89
2021/01/30 10:31:26;;;;;;;0.10;0.10;;;10.30;99.90;;;;;;5048130;28;20470;-91
2021/01/30 10:34:06;;;;;;;0.10;0.10;;;10.50;99.90;;;;;;5045547;28;20017;-89
2021/01/30 10:36:36;;;;;;;0.10;0.10;;;10.50;99.90;;;;;;5060038;28;20035;-89
2021/01/30 10:39:05;;;;;;;0.10;0.10;;;10.60;99.90;;;;;;5061087;28;20047;-88
2021/01/30 10:41:33;;;;;;;0.35;0.25;;;10.60;99.90;;;;;;5049617;28;20028;-90
2021/01/30 10:44:03;;;;;;;6.82;5.05;;;10.50;99.90;;;;;;5064611;28;20031;-90
2021/01/30 10:46:41;;;;;;;3.85;3.55;;;10.50;99.90;;;;;;5046760;28;20121;-90
2021/01/30 10:49:23;;;;;;;1.75;1.65;;;10.60;99.90;;;;;;5047074;28;20036;-89
2021/01/30 10:52:00;;;;;;;3.00;1.27;;;10.80;99.90;;;;;;5040487;28;20029;-88
2021/01/30 10:54:29;;;;;;;0.68;0.68;;;10.80;99.90;;;;;;5058018;28;20033;-88
2021/01/30 10:57:17;;;;;;;0.20;0.20;;;10.90;99.90;;;;;;5055676;28;20035;-88
2021/01/30 11:00:21;;;;;;;5.68;1.80;;;10.80;99.90;;;;;;5051184;28;20074;-88
2021/01/30 11:02:49;;;;;;;3.15;1.77;;;10.90;99.90;;;;;;5056758;28;20549;-88
2021/01/30 11:05:24;;;;;;;0.13;0.13;;;10.70;99.90;;;;;;5057011;28;20094;-88
2021/01/30 11:07:52;;;;;;;0.28;0.28;;;10.50;99.90;;;;;;5056592;28;20486;-89
2021/01/30 11:10:40;;;;;;;0.22;0.22;;;10.30;99.90;;;;;;5041952;28;20112;-88
2021/01/30 11:13:26;;;;;;;2.15;0.80;;;10.20;99.90;;;;;;5057412;28;20017;-88
2021/01/30 11:16:06;;;;;;;0.20;0.20;;;10.20;99.90;;;;;;5054994;28;20025;-88
2021/01/30 11:18:37;;;;;;;0.28;0.28;;;10.50;99.90;;;;;;5054191;28;20013;-88
2021/01/30 11:21:06;;;;;;;0.45;0.45;;;10.80;99.90;;;;;;5052949;28;20056;-89
2021/01/30 11:23:46;;;;;;;0.70;0.70;;;10.90;99.90;;;;;;5056139;28;20026;-89
2021/01/30 11:26:32;;;;;;;2.40;1.15;;;11.10;99.90;;;;;;5034651;28;20029;-89
2021/01/30 11:29:00;;;;;;;0.55;0.55;;;11.20;99.90;;;;;;5041320;28;20029;-89
2021/01/30 11:31:28;;;;;;;0.10;0.10;;;11.10;99.90;;;;;;5058835;28;20121;-89
2021/01/30 11:33:56;;;;;;;0.40;0.40;;;11.10;99.90;;;;;;5054965;28;20028;-89
2021/01/30 11:36:23;;;;;;;0.10;0.10;;;11.00;99.90;;;;;;5061621;28;20033;-89
2021/01/30 11:38:58;;;;;;;19.17;0.65;;;11.10;99.90;;;;;;5062457;28;20035;-88
2021/01/30 11:41:24;;;;;;;0.22;0.22;;;11.30;1.00;;;;;;5059972;28;20032;-89
2021/01/30 11:43:50;;;;;;;0.52;0.30;;;11.40;1.00;;;;;;5047390;28;20048;-88
2021/01/30 11:46:16;;;;;;;0.20;0.20;;;11.40;1.00;;;;;;5061237;28;20071;-90
2021/01/30 11:48:41;;;;;;;0.10;0.10;;;11.50;1.00;;;;;;5066674;28;20020;-90
2021/01/30 11:51:18;;;;;;;0.20;0.20;;;11.70;1.00;;;;;;5066530;28;20516;-90
2021/01/30 11:53:44;;;;;;;0.30;0.30;;;11.80;1.00;;;;;;5067701;28;20081;-89
2021/01/30 11:56:10;;;;;;;0.43;0.43;;;11.70;99.90;;;;;;5062195;28;20028;-89
2021/01/30 11:58:35;;;;;;;0.40;0.40;;;11.60;99.90;;;;;;5064370;28;20037;-89
2021/01/30 12:01:01;;;;;;;2.80;1.37;;;11.50;99.90;;;;;;5059947;28;20089;-90
2021/01/30 12:03:29;;;;;;;16.98;0.90;;;11.40;99.90;;;;;;5061184;28;20118;-89
2021/01/30 12:05:55;;;;;;;6.63;1.65;;;11.10;99.90;;;;;;5044207;28;20024;-89
2021/01/30 12:08:21;;;;;;;0.73;0.73;;;10.80;99.90;;;;;;5048563;28;20101;-89
2021/01/30 12:10:47;;;;;;;0.83;0.70;;;10.50;99.90;;;;;;5064096;28;20487;-91
2021/01/30 12:13:13;;;;;;;2.17;0.95;;;9.90;77.50;;;;;;5067020;28;20489;-88
2021/01/30 12:15:38;;;;;;;0.50;0.50;;;9.80;99.90;;;;;;5041200;28;20021;-89
2021/01/30 12:18:10;;;;;;;1.15;0.90;;;10.00;99.90;;;;;;5056073;28;20035;-88
2021/01/30 12:20:37;;;;;;;5.18;3.10;;;10.10;17.90;;;;;;5064871;28;20055;-88
2021/01/30 12:23:03;;;;;;;2.53;1.63;;;10.00;99.90;;;;;;5061536;28;20508;-88
2021/01/30 12:25:30;;;;;;;0.10;0.10;;;10.20;99.90;;;;;;5063859;28;20115;-88
2021/01/30 12:27:59;;;;;;;0.30;0.30;;;10.20;99.90;;;;;;5061714;28;20617;-89
2021/01/30 12:30:29;;;;;;;0.77;0.77;;;10.50;75.90;;;;;;5064945;28;20021;-89
2021/01/30 12:32:55;;;;;;;0.10;0.10;;;10.60;99.90;;;;;;5066562;28;20034;-87
2021/01/30 12:35:24;;;;;;;0.32;0.30;;;10.50;75.50;;;;;;5066133;28;20043;-88
2021/01/30 12:37:52;;;;;;;0.65;0.65;;;10.60;99.90;;;;;;5048553;28;20604;-88
2021/01/30 12:40:24;;;;;;;0.30;0.30;;;10.50;99.90;;;;;;5065090;28;20028;-87
2021/01/30 12:42:50;;;;;;;0.10;0.10;;;10.30;99.90;;;;;;5057345;28;20115;-88
2021/01/30 12:45:16;;;;;;;0.25;0.25;;;10.40;99.90;;;;;;5059130;28;20170;-88
2021/01/30 12:47:42;;;;;;;0.43;0.43;;;10.60;99.90;;;;;;5051563;28;20750;-88
2021/01/30 12:50:10;;;;;;;1.38;1.27;;;10.80;99.90;;;;;;5049506;28;20104;-88
2021/01/30 12:52:36;;;;;;;0.57;0.57;;;10.80;99.90;;;;;;5046277;28;20028;-88
2021/01/30 12:55:02;;;;;;;0.17;0.17;;;10.70;66.60;;;;;;5035815;28;20013;-88
2021/01/30 12:57:27;;;;;;;0.77;0.77;;;10.70;25.00;;;;;;5055369;28;20017;-88
2021/01/30 12:59:53;;;;;;;0.67;0.67;;;10.70;1.00;;;;;;5052666;28;20487;-88
2021/01/30 13:02:19;;;;;;;0.83;0.83;;;10.90;1.00;;;;;;5058974;28;20013;-88
2021/01/30 13:04:45;;;;;;;0.20;0.20;;;11.20;99.90;;;;;;5054713;28;20028;-88
2021/01/30 13:07:12;;;;;;;0.17;0.17;;;11.40;99.90;;;;;;5038484;28;20055;-88
2021/01/30 13:09:39;;;;;;;0.20;0.20;;;11.70;99.90;;;;;;5054769;28;20101;-88
2021/01/30 13:12:10;;;;;;;3.33;1.90;;;11.80;99.90;;;;;;5051653;28;20047;-88
2021/01/30 13:14:38;;;;;;;0.75;0.47;;;11.70;99.90;;;;;;5052813;28;20078;-88
2021/01/30 13:17:09;;;;;;;0.43;0.43;;;11.70;99.90;;;;;;5038818;28;20036;-87
2021/01/30 13:19:39;;;;;;;0.10;0.10;;;11.20;99.90;;;;;;5053870;28;20079;-88
2021/01/30 13:22:06;;;;;;;0.40;0.40;;;11.00;99.90;;;;;;5062749;28;20049;-88
2021/01/30 13:24:33;;;;;;;0.65;0.63;;;11.20;99.90;;;;;;5038337;28;20108;-88
2021/01/30 13:27:03;;;;;;;0.45;0.45;;;11.50;99.90;;;;;;5049763;28;20387;-88
2021/01/30 13:29:30;;;;;;;8.05;1.17;;;11.60;99.90;;;;;;5034697;28;20035;-88
2021/01/30 13:31:57;;;;;;;1.55;1.33;;;11.60;99.90;;;;;;5054390;28;20024;-88